Time;durP1;ratioP1;P1;durP2;ratioP2;P2;SDS_P1;SDS_P2;PMS_P1;PMS_P2;Temp;Humidity;BMP_temperature;BMP_pressure;BME280_temperature;BME280_humidity;BME280_pressure;Samples;Min_cycle;Max_cycle;Signal;HPM_P1;HPM_P2
2021/10/29 00:00:08;;;;;;;23.38;15.00;;;11.60;75.40;;;;;;5031443;28;20044;-72
2021/10/29 00:02:33;;;;;;;26.25;16.63;;;11.60;75.30;;;;;;5032481;28;20029;-71
2021/10/29 00:04:59;;;;;;;22.48;16.52;;;11.50;75.20;;;;;;5029375;28;20030;-72
2021/10/29 00:07:25;;;;;;;20.55;16.48;;;11.60;75.30;;;;;;5031860;28;20040;-72
2021/10/29 00:09:51;;;;;;;19.95;15.35;;;11.50;75.20;;;;;;5033459;28;20032;-74
2021/10/29 00:12:18;;;;;;;20.55;15.50;;;11.50;75.10;;;;;;5032007;28;20029;-72
2021/10/29 00:14:45;;;;;;;18.92;15.88;;;11.40;75.10;;;;;;5031308;28;20043;-70
2021/10/29 00:17:11;;;;;;;20.88;15.60;;;11.50;75.20;;;;;;5032347;28;20045;-74
2021/10/29 00:19:38;;;;;;;19.92;15.27;;;11.40;75.20;;;;;;5039950;28;20383;-74
2021/10/29 00:22:04;;;;;;;18.52;15.23;;;11.40;75.00;;;;;;5033127;28;20047;-72
2021/10/29 00:24:30;;;;;;;19.08;15.73;;;11.40;75.00;;;;;;5034178;28;20424;-71
2021/10/29 00:26:56;;;;;;;22.73;16.45;;;11.30;75.10;;;;;;5038971;28;20029;-72
2021/10/29 00:29:22;;;;;;;21.65;15.52;;;11.40;75.30;;;;;;5035961;28;20088;-72
2021/10/29 00:31:49;;;;;;;20.35;15.52;;;11.30;75.20;;;;;;5033249;28;20051;-72
2021/10/29 00:34:15;;;;;;;25.65;17.75;;;11.30;75.10;;;;;;5037578;28;20485;-72
2021/10/29 00:36:41;;;;;;;20.08;15.35;;;11.30;75.20;;;;;;5039734;28;20065;-74
2021/10/29 00:39:07;;;;;;;19.80;15.55;;;11.30;75.10;;;;;;5036673;28;20377;-72
2021/10/29 00:41:36;;;;;;;23.42;16.63;;;11.20;75.10;;;;;;5046854;28;20022;-72
2021/10/29 00:44:03;;;;;;;24.27;16.05;;;11.20;75.00;;;;;;5034205;28;20055;-72
2021/10/29 00:46:28;;;;;;;23.73;16.48;;;11.10;75.00;;;;;;5038521;28;20043;-74
2021/10/29 00:48:54;;;;;;;20.20;15.68;;;11.10;74.90;;;;;;5040971;28;20021;-75
2021/10/29 00:51:21;;;;;;;19.60;15.65;;;11.10;75.00;;;;;;5049482;28;20067;-75
2021/10/29 00:53:48;;;;;;;20.70;16.13;;;11.10;75.00;;;;;;5024821;28;20234;-75
2021/10/29 00:56:14;;;;;;;23.85;16.02;;;11.00;75.00;;;;;;5040077;28;20025;-75
2021/10/29 00:58:40;;;;;;;18.20;14.23;;;11.00;75.00;;;;;;5012760;28;20025;-72
2021/10/29 01:01:06;;;;;;;20.55;15.00;;;11.00;75.00;;;;;;5029964;28;20453;-71
2021/10/29 01:03:37;;;;;;;19.23;14.98;;;11.00;74.90;;;;;;5014014;28;20029;-73
2021/10/29 01:06:03;;;;;;;20.02;15.23;;;10.90;75.10;;;;;;5026809;28;20025;-72
2021/10/29 01:08:29;;;;;;;17.70;14.80;;;10.90;75.10;;;;;;5029887;28;20049;-73
2021/10/29 01:10:56;;;;;;;20.42;16.13;;;10.90;75.10;;;;;;5012134;28;20052;-75
2021/10/29 01:13:22;;;;;;;19.33;15.10;;;10.80;75.20;;;;;;5028967;28;20029;-71
2021/10/29 01:15:47;;;;;;;19.35;15.45;;;10.80;75.40;;;;;;5030553;28;20552;-72
2021/10/29 01:18:13;;;;;;;21.52;15.25;;;10.80;75.50;;;;;;5022356;28;20122;-75
2021/10/29 01:20:39;;;;;;;20.30;14.45;;;10.70;75.50;;;;;;5027181;28;20040;-73
2021/10/29 01:23:05;;;;;;;20.73;15.45;;;10.70;75.50;;;;;;5030075;28;20112;-72
2021/10/29 01:25:30;;;;;;;21.40;15.40;;;10.70;75.70;;;;;;5029727;28;20032;-71
2021/10/29 01:27:56;;;;;;;19.58;15.43;;;10.60;75.70;;;;;;5029851;28;20108;-72
2021/10/29 01:30:22;;;;;;;23.55;14.73;;;10.60;75.80;;;;;;5029295;28;20029;-72
2021/10/29 01:32:48;;;;;;;20.08;14.95;;;10.60;75.90;;;;;;5030583;28;20136;-74
2021/10/29 01:35:15;;;;;;;21.80;15.02;;;10.60;76.20;;;;;;5032539;28;20018;-75
2021/10/29 01:37:44;;;;;;;21.08;15.25;;;10.60;76.20;;;;;;5034255;28;20026;-75
2021/10/29 01:40:13;;;;;;;21.27;15.38;;;10.50;76.30;;;;;;5033340;28;20026;-75
2021/10/29 01:42:40;;;;;;;22.05;15.85;;;10.50;76.20;;;;;;5038162;28;20037;-75
2021/10/29 01:45:07;;;;;;;19.05;15.20;;;10.50;76.50;;;;;;5031165;28;20028;-74
2021/10/29 01:47:33;;;;;;;19.17;14.25;;;10.50;76.50;;;;;;5031783;28;20503;-75
2021/10/29 01:49:59;;;;;;;21.10;14.38;;;10.50;76.40;;;;;;5030722;28;20488;-75
2021/10/29 01:52:25;;;;;;;19.67;14.13;;;10.50;76.40;;;;;;5032086;28;20028;-75
2021/10/29 01:54:50;;;;;;;18.70;13.70;;;10.50;76.40;;;;;;5030810;28;20036;-75
2021/10/29 01:57:16;;;;;;;20.63;14.52;;;10.50;76.40;;;;;;5022464;28;20029;-74
2021/10/29 01:59:42;;;;;;;22.70;15.27;;;10.50;76.60;;;;;;5041107;28;20025;-75
2021/10/29 02:02:08;;;;;;;20.65;14.98;;;10.40;76.60;;;;;;5029835;28;20033;-72
2021/10/29 02:04:34;;;;;;;20.23;14.15;;;10.40;76.60;;;;;;5028773;28;20166;-75
2021/10/29 02:06:59;;;;;;;19.85;15.00;;;10.40;76.80;;;;;;5030682;28;20053;-71
2021/10/29 02:09:25;;;;;;;20.75;14.23;;;10.40;76.80;;;;;;5046964;28;20365;-75
2021/10/29 02:11:51;;;;;;;21.70;15.35;;;10.40;76.90;;;;;;5031944;28;20026;-75
2021/10/29 02:14:17;;;;;;;21.25;14.50;;;10.40;76.90;;;;;;5047387;28;20045;-74
2021/10/29 02:16:43;;;;;;;18.83;14.13;;;10.30;77.00;;;;;;5030493;28;20063;-71
2021/10/29 02:19:08;;;;;;;21.13;15.18;;;10.30;77.00;;;;;;5022342;28;20022;-72
2021/10/29 02:21:34;;;;;;;17.38;13.48;;;10.30;76.90;;;;;;5028457;28;20041;-73
2021/10/29 02:24:00;;;;;;;20.13;13.85;;;10.30;76.90;;;;;;5028786;28;20039;-74
2021/10/29 02:26:28;;;;;;;19.77;14.18;;;10.30;76.80;;;;;;5031612;28;20490;-75
2021/10/29 02:28:54;;;;;;;22.27;14.93;;;10.30;76.90;;;;;;5013765;28;20025;-75
2021/10/29 02:31:20;;;;;;;21.27;14.45;;;10.20;77.10;;;;;;5030482;28;20469;-75
2021/10/29 02:33:46;;;;;;;19.33;14.00;;;10.20;77.20;;;;;;5031348;28;20354;-75
2021/10/29 02:36:11;;;;;;;18.52;14.02;;;10.20;77.30;;;;;;5031548;28;20504;-75
2021/10/29 02:38:38;;;;;;;17.83;14.10;;;10.20;77.40;;;;;;5030025;28;20526;-75
2021/10/29 02:41:04;;;;;;;22.38;14.57;;;10.20;77.50;;;;;;5031582;28;20365;-74
2021/10/29 02:43:30;;;;;;;19.80;14.18;;;10.20;77.40;;;;;;5031223;28;20017;-74
2021/10/29 02:45:56;;;;;;;20.58;13.68;;;10.10;77.40;;;;;;5030788;28;20033;-71
2021/10/29 02:48:23;;;;;;;18.77;13.52;;;10.10;77.40;;;;;;5032462;28;20033;-72
2021/10/29 02:50:48;;;;;;;19.40;13.88;;;10.10;77.30;;;;;;5033201;28;20018;-74
2021/10/29 02:53:14;;;;;;;19.80;13.60;;;10.10;77.20;;;;;;5027373;28;20105;-73
2021/10/29 02:55:40;;;;;;;17.05;13.07;;;10.10;77.20;;;;;;5030416;28;20381;-75
2021/10/29 02:58:06;;;;;;;17.33;13.20;;;10.10;77.20;;;;;;5030300;28;20030;-74
2021/10/29 03:00:32;;;;;;;21.15;13.30;;;10.10;77.20;;;;;;5030802;28;20025;-74
2021/10/29 03:02:58;;;;;;;19.67;14.00;;;10.00;77.00;;;;;;5029687;28;20045;-74
2021/10/29 03:05:24;;;;;;;19.08;13.93;;;10.00;77.10;;;;;;5012084;28;20480;-71
2021/10/29 03:07:50;;;;;;;19.20;14.43;;;10.00;77.30;;;;;;5027300;28;20057;-71
2021/10/29 03:10:16;;;;;;;20.15;14.43;;;10.00;77.30;;;;;;5027350;28;20038;-71
2021/10/29 03:12:42;;;;;;;20.38;14.23;;;10.00;77.40;;;;;;5029388;28;20026;-75
2021/10/29 03:15:10;;;;;;;20.10;13.77;;;9.90;77.40;;;;;;5030858;28;20026;-74
2021/10/29 03:17:36;;;;;;;17.75;13.43;;;9.90;77.40;;;;;;5030188;28;20025;-74
2021/10/29 03:20:04;;;;;;;20.10;14.20;;;9.90;77.40;;;;;;5030683;28;20030;-75
2021/10/29 03:22:30;;;;;;;19.35;13.13;;;9.90;77.40;;;;;;5030553;28;20033;-75
2021/10/29 03:24:56;;;;;;;17.90;13.55;;;9.90;77.40;;;;;;5030571;28;20025;-74
2021/10/29 03:27:21;;;;;;;23.45;15.18;;;9.80;77.30;;;;;;5029090;28;20119;-75
2021/10/29 03:29:47;;;;;;;21.20;14.90;;;9.80;77.50;;;;;;5029788;28;20049;-74
2021/10/29 03:32:18;;;;;;;19.98;14.60;;;9.80;77.50;;;;;;5031884;28;20025;-74
2021/10/29 03:34:44;;;;;;;18.77;14.02;;;9.80;77.50;;;;;;5016639;28;20037;-75
2021/10/29 03:37:24;;;;;;;22.27;13.93;;;9.80;77.50;;;;;;5038753;28;20037;-72
2021/10/29 03:40:04;;;;;;;17.02;13.57;;;9.70;77.40;;;;;;5025526;28;20040;-72
2021/10/29 03:42:33;;;;;;;18.88;13.15;;;9.70;77.40;;;;;;5027123;28;20477;-72
2021/10/29 03:45:02;;;;;;;21.77;13.57;;;9.70;77.50;;;;;;5031988;28;20018;-72
2021/10/29 03:47:31;;;;;;;19.15;13.95;;;9.70;77.70;;;;;;5032233;28;20025;-75
2021/10/29 03:50:17;;;;;;;20.35;14.48;;;9.60;77.80;;;;;;5033586;28;20021;-75
2021/10/29 03:52:54;;;;;;;24.17;13.95;;;9.60;77.90;;;;;;5034354;28;20021;-74
2021/10/29 03:55:20;;;;;;;18.00;13.75;;;9.60;78.10;;;;;;5033954;28;20017;-74
2021/10/29 03:57:46;;;;;;;20.13;14.02;;;9.60;78.20;;;;;;5032624;28;20045;-72
2021/10/29 04:00:12;;;;;;;20.48;14.15;;;9.60;78.50;;;;;;5031111;28;20092;-71
2021/10/29 04:02:37;;;;;;;17.20;12.98;;;9.60;78.50;;;;;;5031280;28;20040;-72
2021/10/29 04:05:03;;;;;;;19.90;13.18;;;9.60;79.00;;;;;;5031369;28;20472;-75
2021/10/29 04:07:29;;;;;;;16.08;12.80;;;9.60;79.30;;;;;;5032473;28;20113;-75
2021/10/29 04:09:55;;;;;;;17.83;13.40;;;9.60;79.50;;;;;;5035017;28;20099;-75
2021/10/29 04:12:21;;;;;;;21.35;13.63;;;9.70;79.70;;;;;;5034876;28;20427;-75
2021/10/29 04:14:47;;;;;;;19.23;13.80;;;9.70;79.80;;;;;;5035293;28;20029;-75
2021/10/29 04:17:13;;;;;;;19.42;13.00;;;9.70;79.80;;;;;;5034260;28;20029;-75
2021/10/29 04:19:39;;;;;;;18.05;13.65;;;9.70;79.80;;;;;;5032461;28;20448;-74
2021/10/29 04:22:04;;;;;;;19.08;13.18;;;9.70;79.80;;;;;;5034356;28;20041;-75
2021/10/29 04:24:30;;;;;;;16.33;12.63;;;9.70;79.90;;;;;;5020827;28;20086;-72
2021/10/29 04:26:59;;;;;;;19.95;13.57;;;9.70;79.90;;;;;;5032635;28;20029;-73
2021/10/29 04:29:26;;;;;;;17.45;12.30;;;9.60;80.00;;;;;;5030792;28;20025;-72
2021/10/29 04:31:55;;;;;;;18.83;12.93;;;9.60;80.30;;;;;;5024375;28;20029;-72
2021/10/29 04:34:24;;;;;;;15.23;11.95;;;9.70;80.80;;;;;;5029558;28;20037;-72
2021/10/29 04:36:51;;;;;;;16.42;12.48;;;9.60;80.70;;;;;;5030276;28;20029;-71
2021/10/29 04:39:18;;;;;;;16.23;12.02;;;9.70;80.90;;;;;;5032098;28;20046;-72
2021/10/29 04:41:47;;;;;;;16.67;12.93;;;9.60;81.00;;;;;;5032418;28;20063;-71
2021/10/29 04:44:13;;;;;;;16.80;12.18;;;9.70;81.00;;;;;;5042381;28;20044;-72
2021/10/29 04:46:39;;;;;;;15.35;12.35;;;9.70;81.00;;;;;;5027473;28;20021;-72
2021/10/29 04:49:06;;;;;;;16.92;12.43;;;9.70;81.60;;;;;;5031292;28;20480;-75
2021/10/29 04:51:32;;;;;;;19.73;13.05;;;9.70;81.00;;;;;;5033872;28;20026;-74
2021/10/29 04:53:58;;;;;;;18.67;12.75;;;9.70;81.00;;;;;;5021941;28;20018;-75
2021/10/29 04:56:47;;;;;;;17.70;12.45;;;9.70;81.10;;;;;;5032353;28;20343;-76
2021/10/29 04:59:15;;;;;;;16.27;12.10;;;9.70;81.00;;;;;;5026921;28;20464;-75
2021/10/29 05:01:43;;;;;;;13.63;11.75;;;9.70;81.00;;;;;;5031365;28;20037;-74
2021/10/29 05:04:09;;;;;;;19.15;12.30;;;9.70;81.20;;;;;;5032715;28;20451;-74
2021/10/29 05:06:35;;;;;;;18.30;12.15;;;9.70;81.80;;;;;;5031557;28;20034;-75
2021/10/29 05:09:01;;;;;;;19.10;12.23;;;9.70;81.30;;;;;;5039420;28;20037;-75
2021/10/29 05:11:26;;;;;;;17.48;12.27;;;9.60;81.50;;;;;;5026706;28;20370;-75
2021/10/29 05:13:52;;;;;;;14.80;12.30;;;9.70;81.70;;;;;;5032751;28;20081;-75
2021/10/29 05:16:18;;;;;;;14.73;11.95;;;9.70;81.90;;;;;;5033127;28;20064;-75
2021/10/29 05:18:43;;;;;;;15.82;11.55;;;9.70;82.30;;;;;;5031662;28;20064;-75
2021/10/29 05:21:09;;;;;;;18.58;12.80;;;9.70;82.50;;;;;;5038209;28;20450;-75
2021/10/29 05:23:35;;;;;;;16.15;12.27;;;9.70;82.80;;;;;;5031537;28;20026;-75
2021/10/29 05:26:01;;;;;;;15.07;12.05;;;9.80;83.00;;;;;;5045589;28;20396;-75
2021/10/29 05:28:33;;;;;;;15.80;12.20;;;9.80;83.10;;;;;;5044562;28;20419;-75
2021/10/29 05:30:59;;;;;;;15.60;12.20;;;9.80;83.10;;;;;;5046651;28;20049;-75
2021/10/29 05:33:25;;;;;;;16.73;12.63;;;9.80;83.10;;;;;;5032035;28;20508;-74
2021/10/29 05:35:50;;;;;;;17.33;13.10;;;9.80;83.10;;;;;;5033191;28;20090;-75
2021/10/29 05:38:16;;;;;;;17.10;12.93;;;9.80;83.20;;;;;;5033383;28;20030;-75
2021/10/29 05:40:42;;;;;;;17.90;12.55;;;9.80;83.10;;;;;;5032033;28;20512;-75
2021/10/29 05:43:08;;;;;;;17.58;11.73;;;9.90;83.20;;;;;;5029217;28;20033;-72
2021/10/29 05:45:34;;;;;;;17.65;12.80;;;9.80;83.10;;;;;;5011486;28;20512;-73
2021/10/29 05:48:05;;;;;;;16.17;12.98;;;9.90;83.40;;;;;;5012852;28;20033;-73
2021/10/29 05:50:31;;;;;;;20.10;12.93;;;9.90;83.60;;;;;;5029434;28;20104;-73
2021/10/29 05:53:00;;;;;;;18.25;13.30;;;9.90;83.90;;;;;;5028470;28;20880;-72
2021/10/29 05:55:26;;;;;;;18.15;12.45;;;9.90;84.00;;;;;;5029700;28;20764;-72
2021/10/29 05:57:53;;;;;;;16.83;12.38;;;9.90;84.00;;;;;;5030781;28;20033;-72
2021/10/29 06:00:21;;;;;;;19.60;13.55;;;9.90;83.90;;;;;;5029370;28;20392;-72
2021/10/29 06:02:48;;;;;;;18.63;13.18;;;9.90;84.30;;;;;;5018764;28;20056;-72
2021/10/29 06:05:14;;;;;;;19.10;13.70;;;10.00;84.40;;;;;;5027928;28;20029;-72
2021/10/29 06:07:40;;;;;;;18.23;13.27;;;10.00;84.50;;;;;;5025776;28;20092;-72
2021/10/29 06:10:08;;;;;;;16.10;12.75;;;10.00;84.40;;;;;;5034449;28;20797;-74
2021/10/29 06:12:37;;;;;;;15.05;12.27;;;10.00;84.50;;;;;;5037041;28;20029;-74
2021/10/29 06:15:04;;;;;;;15.85;12.18;;;10.00;84.40;;;;;;5041817;28;20017;-75
2021/10/29 06:17:31;;;;;;;20.63;12.85;;;10.00;84.30;;;;;;5036263;28;20108;-74
2021/10/29 06:19:57;;;;;;;17.70;12.95;;;10.00;84.30;;;;;;5031548;28;20033;-74
2021/10/29 06:22:26;;;;;;;18.13;12.35;;;10.00;84.30;;;;;;5040060;28;20037;-75
2021/10/29 06:24:53;;;;;;;18.10;13.07;;;10.00;84.20;;;;;;5033127;28;20029;-74
2021/10/29 06:29:46;;;;;;;19.85;13.45;;;10.10;84.20;;;;;;5028640;28;20127;-75
2021/10/29 06:32:18;;;;;;;18.00;12.18;;;10.00;84.30;;;;;;5027038;28;20084;-75
2021/10/29 06:34:43;;;;;;;17.83;12.45;;;10.00;84.20;;;;;;5026999;28;20053;-75
2021/10/29 06:37:18;;;;;;;14.40;12.15;;;10.00;84.20;;;;;;5028246;28;20030;-72
2021/10/29 06:39:48;;;;;;;18.42;12.45;;;10.00;84.20;;;;;;5028913;28;20464;-72
2021/10/29 06:42:23;;;;;;;15.15;11.63;;;10.10;84.30;;;;;;5029345;28;20029;-72
2021/10/29 06:45:16;;;;;;;17.13;12.65;;;10.10;84.20;;;;;;5029229;28;20046;-73
2021/10/29 06:48:15;;;;;;;;;;;10.10;84.20;;;;;;5028612;28;20029;-71
2021/10/29 07:01:46;;;;;;;17.67;12.65;;;10.10;84.60;;;;;;5026462;28;20132;-72
2021/10/29 07:41:58;;;;;;;18.58;13.80;;;10.40;84.80;;;;;;5043746;28;20036;-73
2021/10/29 07:44:28;;;;;;;18.05;14.13;;;10.40;84.90;;;;;;5028097;28;20029;-73
2021/10/29 07:46:55;;;;;;;16.00;12.57;;;10.40;85.00;;;;;;5035509;28;20098;-73
2021/10/29 07:49:27;;;;;;;16.50;11.95;;;10.50;85.00;;;;;;5033480;28;20128;-72
2021/10/29 07:51:53;;;;;;;19.92;13.15;;;10.50;85.00;;;;;;5031592;28;20040;-72
2021/10/29 07:54:19;;;;;;;17.30;12.32;;;10.60;85.00;;;;;;5035988;28;20095;-75
2021/10/29 07:56:45;;;;;;;18.33;13.07;;;10.60;84.90;;;;;;5037116;28;20042;-76
2021/10/29 07:59:11;;;;;;;15.48;12.73;;;10.60;85.10;;;;;;5037683;28;20037;-71
2021/10/29 08:01:36;;;;;;;17.80;13.05;;;10.70;85.20;;;;;;5021236;28;20072;-72
2021/10/29 08:04:02;;;;;;;18.73;13.13;;;10.70;85.00;;;;;;5033855;28;20060;-72
2021/10/29 08:06:28;;;;;;;18.42;12.77;;;10.80;85.10;;;;;;5036510;28;20073;-76
2021/10/29 08:08:54;;;;;;;20.60;12.50;;;10.80;85.20;;;;;;5042599;28;20032;-76
2021/10/29 08:11:20;;;;;;;16.25;12.27;;;10.90;85.00;;;;;;5020067;28;20037;-72
2021/10/29 08:13:46;;;;;;;14.20;11.02;;;11.00;84.90;;;;;;5048903;28;20079;-76
2021/10/29 08:16:11;;;;;;;16.75;11.77;;;11.00;84.60;;;;;;5032502;28;20372;-75
2021/10/29 08:18:43;;;;;;;16.70;13.32;;;11.10;84.60;;;;;;5036332;28;20432;-75
2021/10/29 08:21:11;;;;;;;19.55;13.05;;;11.20;84.50;;;;;;5033055;28;20026;-75
2021/10/29 08:23:38;;;;;;;16.55;12.63;;;11.20;84.50;;;;;;5048849;28;20540;-75
2021/10/29 08:26:04;;;;;;;18.25;12.93;;;11.30;84.20;;;;;;5032891;28;20029;-74
2021/10/29 08:28:30;;;;;;;18.17;12.63;;;11.30;83.80;;;;;;5037050;28;20030;-75
2021/10/29 08:30:56;;;;;;;16.85;12.45;;;11.40;84.20;;;;;;5031980;28;20034;-75
2021/10/29 08:33:23;;;;;;;19.00;12.60;;;11.50;84.60;;;;;;5033280;28;20052;-76
2021/10/29 08:35:50;;;;;;;15.45;11.55;;;11.50;84.10;;;;;;5032403;28;20017;-73
2021/10/29 08:38:17;;;;;;;16.27;11.73;;;11.60;84.10;;;;;;5005190;28;20049;-72
2021/10/29 08:40:44;;;;;;;14.70;11.18;;;11.60;83.90;;;;;;5029894;28;20053;-72
2021/10/29 08:43:11;;;;;;;15.98;11.75;;;11.70;83.90;;;;;;5030351;28;20026;-72
2021/10/29 08:45:37;;;;;;;14.60;12.07;;;11.70;83.80;;;;;;5029530;28;20025;-72
2021/10/29 08:48:05;;;;;;;15.85;12.65;;;11.80;83.60;;;;;;5029515;28;20044;-72
2021/10/29 08:50:33;;;;;;;16.90;12.40;;;11.90;83.40;;;;;;5016522;28;20500;-73
2021/10/29 08:52:59;;;;;;;14.55;11.27;;;12.00;83.20;;;;;;5026365;28;20048;-72
2021/10/29 08:55:27;;;;;;;16.05;12.23;;;12.10;82.90;;;;;;5010046;28;20095;-71
2021/10/29 08:57:53;;;;;;;17.10;11.90;;;12.30;82.00;;;;;;5032224;28;20038;-76
2021/10/29 09:00:28;;;;;;;15.10;11.40;;;12.40;82.10;;;;;;5029410;28;20032;-72
2021/10/29 09:03:10;;;;;;;14.52;10.88;;;12.50;81.60;;;;;;5023184;28;20037;-72
2021/10/29 09:17:04;;;;;;;12.15;10.35;;;13.00;80.40;;;;;;5028996;28;20092;-75
2021/10/29 09:34:06;;;;;;;15.07;10.00;;;13.70;77.60;;;;;;5037708;28;20512;-75
2021/10/29 09:36:37;;;;;;;14.43;9.45;;;13.80;77.50;;;;;;5030404;28;20026;-75
2021/10/29 09:39:12;;;;;;;13.65;9.55;;;13.90;76.60;;;;;;5032249;28;20125;-75
2021/10/29 09:41:38;;;;;;;16.98;9.77;;;14.00;76.00;;;;;;5029381;28;20021;-75
2021/10/29 09:44:05;;;;;;;12.73;8.68;;;14.10;76.30;;;;;;5032375;28;20123;-76
2021/10/29 09:46:54;;;;;;;13.20;9.40;;;14.20;76.70;;;;;;5032092;28;20029;-76
2021/10/29 09:49:23;;;;;;;13.95;9.10;;;14.30;75.90;;;;;;5034477;28;20392;-72
2021/10/29 09:52:19;;;;;;;12.23;8.30;;;14.40;75.40;;;;;;5026869;28;20068;-73
2021/10/29 09:55:46;;;;;;;14.40;8.93;;;14.50;75.20;;;;;;5022512;28;20042;-76
2021/10/29 09:57:34;;;;;;;11.30;8.50;;;14.60;75.10;;;;;;5023135;28;20037;-75
2021/10/29 10:00:11;;;;;;;13.10;8.93;;;14.60;74.00;;;;;;5024011;28;20099;-76
2021/10/29 10:02:41;;;;;;;12.27;8.43;;;14.60;74.10;;;;;;5032296;28;20401;-77
2021/10/29 10:05:07;;;;;;;10.38;8.30;;;14.80;74.80;;;;;;5031952;28;20049;-76
2021/10/29 10:07:36;;;;;;;11.32;8.85;;;14.90;74.10;;;;;;5031176;28;20547;-76
2021/10/29 10:10:07;;;;;;;11.10;8.40;;;15.00;73.80;;;;;;5030367;28;20042;-77
2021/10/29 10:12:37;;;;;;;16.33;8.27;;;15.00;73.40;;;;;;5031011;28;20017;-76
2021/10/29 10:15:08;;;;;;;11.25;8.18;;;15.10;73.20;;;;;;5030544;28;20049;-76
2021/10/29 10:17:34;;;;;;;12.07;8.80;;;15.20;73.00;;;;;;5031679;28;20088;-76
2021/10/29 10:20:02;;;;;;;11.23;8.45;;;15.30;71.70;;;;;;5031356;28;20062;-76
2021/10/29 10:22:33;;;;;;;10.23;7.22;;;15.40;71.50;;;;;;5042371;28;20033;-75
2021/10/29 10:25:03;;;;;;;10.38;8.40;;;15.50;71.50;;;;;;5045156;28;20086;-76
2021/10/29 10:40:14;;;;;;;11.57;7.40;;;15.60;71.20;;;;;;5025573;28;20043;-71
2021/10/29 10:42:27;;;;;;;11.23;7.30;;;16.00;70.30;;;;;;5020901;28;20076;-72
2021/10/29 10:45:15;;;;;;;11.88;7.57;;;16.20;68.80;;;;;;5024660;28;20029;-72
2021/10/29 10:47:54;;;;;;;10.55;6.78;;;16.20;68.50;;;;;;5027671;28;20049;-73
2021/10/29 10:50:31;;;;;;;8.60;5.90;;;16.20;68.90;;;;;;5026453;28;20488;-72
2021/10/29 10:53:15;;;;;;;11.35;6.50;;;16.30;69.20;;;;;;5019090;28;20021;-73
2021/10/29 10:56:46;;;;;;;9.30;6.47;;;16.40;68.90;;;;;;5030136;28;20029;-76
2021/10/29 11:07:15;;;;;;;7.15;6.20;;;16.50;67.00;;;;;;5022615;28;20029;-73
2021/10/29 11:10:03;;;;;;;10.27;6.45;;;16.50;66.90;;;;;;5024739;28;20033;-73
2021/10/29 11:12:41;;;;;;;9.98;6.53;;;16.60;66.50;;;;;;5030793;28;20040;-76
2021/10/29 11:15:09;;;;;;;11.85;7.13;;;16.70;66.30;;;;;;5034383;28;20492;-75
2021/10/29 11:17:45;;;;;;;11.63;5.93;;;16.80;65.90;;;;;;5031312;28;20108;-76
2021/10/29 11:20:12;;;;;;;8.32;6.45;;;16.90;66.10;;;;;;5030591;28;20555;-72
2021/10/29 11:22:46;;;;;;;9.80;5.90;;;16.90;66.10;;;;;;5037045;28;20038;-75
2021/10/29 11:25:13;;;;;;;9.07;6.82;;;16.80;66.20;;;;;;5018337;28;20457;-76
2021/10/29 11:27:42;;;;;;;11.63;7.30;;;16.80;65.80;;;;;;5031968;28;20065;-76
2021/10/29 11:30:09;;;;;;;8.65;5.90;;;16.90;65.90;;;;;;5033419;28;20083;-76
2021/10/29 11:32:38;;;;;;;8.10;6.25;;;17.00;65.60;;;;;;5044859;28;20074;-76
2021/10/29 11:35:04;;;;;;;9.55;7.10;;;17.00;65.50;;;;;;5032755;28;20041;-75
2021/10/29 11:37:35;;;;;;;10.88;7.00;;;17.00;64.40;;;;;;5024602;28;20124;-72
2021/10/29 11:40:02;;;;;;;8.00;6.13;;;16.90;64.00;;;;;;5031363;28;20033;-73
2021/10/29 11:42:28;;;;;;;9.75;6.05;;;16.80;65.10;;;;;;5028301;28;20067;-76
2021/10/29 11:44:58;;;;;;;13.82;7.00;;;16.70;65.90;;;;;;5035028;28;20440;-76
2021/10/29 11:47:24;;;;;;;8.98;6.60;;;16.70;65.60;;;;;;5024972;28;20033;-76
2021/10/29 11:49:50;;;;;;;10.45;6.85;;;16.70;65.80;;;;;;5031410;28;20021;-76
2021/10/29 11:52:18;;;;;;;10.48;6.75;;;16.80;65.90;;;;;;5011364;28;20029;-75
2021/10/29 11:54:47;;;;;;;11.65;6.18;;;16.80;66.20;;;;;;5035140;28;20036;-76
2021/10/29 11:57:45;;;;;;;9.93;6.32;;;16.70;66.30;;;;;;5024458;28;20040;-72
2021/10/29 12:08:35;;;;;;;8.50;7.53;;;16.60;66.60;;;;;;5004901;28;20421;-72
2021/10/29 12:11:03;;;;;;;7.50;6.50;;;16.60;67.00;;;;;;5021113;28;20021;-73
2021/10/29 12:13:30;;;;;;;10.80;6.18;;;16.70;67.40;;;;;;5029800;28;20025;-73
2021/10/29 12:15:56;;;;;;;8.02;6.63;;;17.00;67.50;;;;;;5029996;28;20504;-73
2021/10/29 12:18:31;;;;;;;9.57;7.13;;;17.30;66.30;;;;;;5028429;28;20517;-72
2021/10/29 12:20:57;;;;;;;11.05;6.57;;;17.50;65.00;;;;;;5021552;28;20060;-72
2021/10/29 12:23:26;;;;;;;13.30;6.57;;;17.70;65.00;;;;;;5004301;28;20144;-72
2021/10/29 12:26:04;;;;;;;8.95;6.55;;;17.90;64.20;;;;;;5029054;28;20026;-72
2021/10/29 12:28:39;;;;;;;7.32;5.78;;;18.20;63.30;;;;;;5023194;28;20026;-73
2021/10/29 13:03:59;;;;;;;8.35;5.60;;;19.00;60.90;;;;;;5032784;28;20038;-76
2021/10/29 13:06:31;;;;;;;9.57;6.15;;;19.10;60.80;;;;;;5028590;28;20028;-76
2021/10/29 13:08:57;;;;;;;10.60;6.25;;;19.00;60.50;;;;;;5033616;28;20029;-75
2021/10/29 13:11:25;;;;;;;10.50;6.63;;;19.10;60.50;;;;;;5033233;28;20056;-76
2021/10/29 13:13:59;;;;;;;9.07;7.35;;;19.20;59.90;;;;;;5033163;28;20021;-73
2021/10/29 13:16:26;;;;;;;9.38;6.13;;;19.10;59.30;;;;;;5030503;28;20029;-73
2021/10/29 13:51:24;;;;;;;8.10;6.00;;;19.20;60.40;;;;;;5012763;28;20056;-72
2021/10/29 14:01:42;;;;;;;6.53;4.55;;;19.40;60.50;;;;;;5029030;28;20028;-72
2021/10/29 14:16:21;;;;;;;7.43;5.15;;;19.60;60.80;;;;;;5029407;28;20025;-81
2021/10/29 14:31:43;;;;;;;8.32;4.93;;;23.60;50.80;;;;;;5027811;28;20112;-72
2021/10/29 14:34:15;;;;;;;6.18;5.18;;;23.90;49.30;;;;;;5027227;28;20136;-72
2021/10/29 14:37:08;;;;;;;8.50;5.10;;;23.70;49.20;;;;;;5026909;28;20503;-71
2021/10/29 14:39:42;;;;;;;8.18;5.35;;;23.60;49.90;;;;;;5024873;28;20066;-78
2021/10/29 14:45:00;;;;;;;11.10;4.95;;;23.90;48.80;;;;;;5033398;28;20061;-73
2021/10/29 14:50:08;;;;;;;6.70;5.20;;;23.50;49.80;;;;;;5029135;28;20033;-75
2021/10/29 15:30:53;;;;;;;12.05;5.50;;;18.30;63.80;;;;;;5034296;28;20022;-76
2021/10/29 15:51:47;;;;;;;8.95;5.53;;;17.80;66.40;;;;;;5026301;28;20064;-71
2021/10/29 15:54:14;;;;;;;6.60;5.00;;;17.80;66.50;;;;;;5017338;28;20053;-71
2021/10/29 15:57:01;;;;;;;11.68;5.50;;;17.80;66.90;;;;;;5025848;28;20072;-71
2021/10/29 16:18:28;;;;;;;6.25;4.68;;;17.60;68.00;;;;;;5034677;28;20423;-75
2021/10/29 16:20:53;;;;;;;8.95;5.15;;;17.60;68.30;;;;;;5048442;28;20034;-76
2021/10/29 16:23:25;;;;;;;5.50;4.75;;;17.60;68.30;;;;;;5032888;28;20028;-76
2021/10/29 16:25:55;;;;;;;10.02;4.63;;;17.60;68.40;;;;;;5032896;28;20028;-75
2021/10/29 16:28:25;;;;;;;7.68;4.75;;;17.60;68.20;;;;;;5034283;28;20040;-75
2021/10/29 16:30:51;;;;;;;6.78;4.55;;;17.60;68.40;;;;;;5034798;28;20022;-75
2021/10/29 16:33:28;;;;;;;6.95;4.30;;;17.60;68.50;;;;;;5032724;28;20578;-76
2021/10/29 16:35:55;;;;;;;8.70;4.53;;;17.60;68.40;;;;;;5033629;28;20017;-76
2021/10/29 16:38:21;;;;;;;7.88;4.50;;;17.60;68.20;;;;;;5032367;28;20401;-75
2021/10/29 16:40:47;;;;;;;5.57;4.00;;;17.50;68.20;;;;;;5033387;28;20029;-77
2021/10/29 16:43:14;;;;;;;5.68;4.00;;;17.60;68.10;;;;;;5032695;28;20064;-77
2021/10/29 16:45:47;;;;;;;7.15;4.10;;;17.60;67.60;;;;;;5026488;28;20030;-77
2021/10/29 16:48:15;;;;;;;7.03;4.47;;;17.50;67.90;;;;;;5029804;28;20029;-71
2021/10/29 16:50:42;;;;;;;6.65;4.15;;;17.50;69.10;;;;;;5029680;28;20473;-72
2021/10/29 16:53:08;;;;;;;7.43;4.88;;;17.50;70.60;;;;;;5029180;28;20025;-72
2021/10/29 16:55:34;;;;;;;9.20;4.70;;;17.40;70.80;;;;;;5031178;28;20029;-71
2021/10/29 16:58:00;;;;;;;5.57;4.03;;;17.40;71.80;;;;;;5029648;28;20033;-72
2021/10/29 17:00:26;;;;;;;10.57;4.43;;;17.30;72.10;;;;;;5029589;28;20389;-73
2021/10/29 17:02:52;;;;;;;10.88;4.63;;;17.30;72.90;;;;;;5018944;28;20039;-73
2021/10/29 17:05:17;;;;;;;6.07;3.92;;;17.20;73.60;;;;;;5012410;28;20025;-73
2021/10/29 17:07:43;;;;;;;6.80;4.30;;;17.20;74.20;;;;;;5011233;28;20408;-72
2021/10/29 17:10:11;;;;;;;5.20;4.22;;;17.10;74.90;;;;;;5001396;28;20425;-73
2021/10/29 17:12:41;;;;;;;5.13;4.07;;;17.00;75.50;;;;;;5023528;28;20465;-73
2021/10/29 17:15:10;;;;;;;6.10;3.85;;;17.00;76.40;;;;;;5024625;28;20025;-72
2021/10/29 17:17:37;;;;;;;6.75;4.38;;;16.90;76.60;;;;;;5021049;28;20120;-72
2021/10/29 17:20:05;;;;;;;5.53;4.10;;;16.80;76.70;;;;;;5028512;28;20032;-71
2021/10/29 17:22:32;;;;;;;6.45;4.30;;;16.80;77.30;;;;;;5028459;28;20041;-72
2021/10/29 17:24:57;;;;;;;6.18;4.40;;;16.80;77.60;;;;;;5029128;28;20458;-72
2021/10/29 17:27:23;;;;;;;7.05;3.90;;;16.80;78.00;;;;;;5027584;28;20108;-78